KMFR/MFR METAR and TAF weather

Enter ICAO airport designator
Station Type Date Time Source
KMFR METAR 2023/01/30 10:53 UTC NOAA

KMFR 301053Z AUTO 00000KT 10SM CLR M06/M13 A3025 RMK AO2 SLP253 T10611133


Station Type Date Time Source
KMFR Decoded METAR 2023/01/30 10:53 UTC NOAA

ROGUE VALLEY INTERNATIONAL AIRPORT, OR, United States (KMFR) 42-23N 122-53W 396M
Jan 30, 2023 - 05:53 AM EST / 2023.01.30 1053 UTC
Wind: Calm:0
Visibility: 10 mile(s):0
Sky conditions: clear
Temperature: 21.0 F (-6.1 C)
Dew Point: 8.1 F (-13.3 C)
Relative Humidity: 56%
Pressure (altimeter): 30.25 in. Hg (1024 hPa)
ob: KMFR 301053Z AUTO 00000KT 10SM CLR M06/M13 A3025 RMK AO2 SLP253 T10611133
cycle: 11

Station Type Date Time Source
KMFR TAF 2023/01/30 12:24 UTC NOAA

TAF KMFR 301122Z 3012/3112 VRB03KT P6SM SKC

Example: see airport list